Impacts METAR Board INFO
IDs:

KLAS - Las Vegas/McCarran I, NV, US

Updated at: 1518 UTC 16 Jan 2018
Potential Impact None Slight Moderate High
Time16/03Z 16/04Z 16/05Z 16/06Z 16/07Z 16/08Z 16/09Z 16/10Z 16/11Z 16/12Z 16/13Z 16/14Z 16/15Z
VIS10 10 10 10 10 10 10 10 10 10 10 10 10
CIG220 220 200 170 160 160 240 240 240 250 250 250 250
CoverBKNBKNBKNBKNOVCOVCOVCBKNBKNBKNBKNBKNBKN
FltCatVFRVFRVFRVFRVFRVFRVFRVFRVFRVFRVFRVFRVFR
WX--------------------------
WDir02200230002202302402600200220
WSpd0 4 0 4 0 0 4 3 3 3 0 3 3
WGst-- -- -- -- -- -- -- -- -- -- -- -- --
Raw hourly METARs
KLAS 160256Z 00000KT 10SM FEW150 BKN220 16/03 A3013 RMK AO2 SLP198 T01560033 53008
KLAS 160356Z 22004KT 10SM FEW150 BKN220 14/05 A3014 RMK AO2 SLP201 T01440050
KLAS 160456Z 00000KT 10SM SCT150 BKN200 13/06 A3014 RMK AO2 SLP202 T01330056
KLAS 160556Z 23004KT 10SM BKN170 BKN220 13/06 A3014 RMK AO2 SLP199 T01330056 10189 20128 51004
KLAS 160656Z 00000KT 10SM BKN160 OVC220 13/06 A3014 RMK AO2 SLP199 T01330056
KLAS 160756Z 00000KT 10SM BKN160 OVC220 13/06 A3013 RMK AO2 SLP194 T01280056 401940078
KLAS 160856Z 22004KT 10SM SCT180 OVC240 12/06 A3014 RMK AO2 SLP198 T01220061 55001
KLAS 160956Z 23003KT 10SM SCT180 BKN240 12/05 A3014 RMK AO2 SLP199 T01170050
KLAS 161056Z 24003KT 10SM FEW180 BKN240 11/05 A3016 RMK AO2 SLP204 T01060050
KLAS 161156Z 26003KT 10SM FEW200 BKN250 10/04 A3015 RMK AO2 SLP201 T01000044 10133 20094 50002
KLAS 161256Z 00000KT 10SM FEW200 BKN250 10/04 A3016 RMK AO2 SLP205 T01000044
KLAS 161356Z 20003KT 10SM FEW200 BKN250 10/04 A3017 RMK AO2 SLP210 T01000039
KLAS 161456Z 22003KT 10SM FEW200 BKN250 10/04 A3020 RMK AO2 SLP220 T01000039 53015